Murphys Camp, Oregon
Current Conditions -  °F | °C
As of 5:35 PM on Sunday 21 Dec 2014 (Local Time) from KOTH Reporting Station
Overcast Overcast  
Wind Chill: 57°   Ceiling: 400
Heat Index: 57°   Visibility: 2.5mi
Dew Point: 57°   Wind: 0mph
Humidity: 100%   Direction: NA
Pressure: 30.23"   Gusts: NA
Location:  43.6987°N, 123.85°W
Report Text: KOTH 220135Z 00000KT 2 1/2SM OVC004 14/14 A3023 RMK AO1 DZ P0002
Loading
Personal Weather Stations






























Interactive Weather Map New forecast layout! Learn more

10-Day Weather Forecast

Advertisements
Track Severe Weather on mobile